createdAt,value
2018-09-15T00:01:28.866Z,11.90
2018-09-15T00:04:00.241Z,12.40
2018-09-15T00:06:31.597Z,11.63
2018-09-15T00:09:01.721Z,11.70
2018-09-15T00:11:31.257Z,10.50
2018-09-15T00:14:00.867Z,11.00
2018-09-15T00:16:31.972Z,10.98
2018-09-15T00:19:03.239Z,11.33
2018-09-15T00:21:32.763Z,10.40
2018-09-15T00:24:03.329Z,10.43
2018-09-15T00:26:32.920Z,8.90
2018-09-15T00:29:06.692Z,9.90
2018-09-15T00:31:38.218Z,10.30
2018-09-15T00:34:08.679Z,9.97
2018-09-15T00:36:39.709Z,9.37
2018-09-15T00:39:14.113Z,9.10
2018-09-15T00:41:45.407Z,9.37
2018-09-15T00:44:20.681Z,10.63
2018-09-15T00:46:50.233Z,9.46
2018-09-15T00:49:19.773Z,9.85
2018-09-15T00:51:49.427Z,10.30
2018-09-15T00:54:19.845Z,10.50
2018-09-15T00:56:49.539Z,10.90
2018-09-15T00:59:19.215Z,10.63
2018-09-15T01:01:51.368Z,10.30
2018-09-15T01:04:20.888Z,10.87
2018-09-15T01:06:54.487Z,11.70
2018-09-15T01:09:26.289Z,11.37
2018-09-15T01:11:57.592Z,12.10
2018-09-15T01:14:29.840Z,12.30
2018-09-15T01:17:02.881Z,12.33
2018-09-15T01:19:32.405Z,14.10
2018-09-15T01:22:01.983Z,13.63
2018-09-15T01:24:32.287Z,14.70
2018-09-15T01:27:01.816Z,14.70
2018-09-15T01:29:32.965Z,12.58
2018-09-15T01:32:02.493Z,12.07
2018-09-15T01:34:33.105Z,15.40
2018-09-15T01:37:03.739Z,15.40
2018-09-15T01:39:33.301Z,15.97
2018-09-15T01:42:04.639Z,16.05
2018-09-15T01:44:34.269Z,15.47
2018-09-15T01:47:25.249Z,16.45
2018-09-15T01:49:54.891Z,16.12
2018-09-15T01:52:25.341Z,14.30
2018-09-15T01:54:54.901Z,12.93
2018-09-15T01:57:24.473Z,12.33
2018-09-15T01:59:54.001Z,12.00
2018-09-15T02:02:25.098Z,12.30
2018-09-15T02:04:55.349Z,11.47
2018-09-15T02:07:26.769Z,11.30
2018-09-15T02:09:58.151Z,11.33
2018-09-15T02:12:30.322Z,12.37
2018-09-15T02:14:59.794Z,11.65
2018-09-15T02:17:29.388Z,10.70
2018-09-15T02:19:58.903Z,12.67
2018-09-15T02:22:30.431Z,12.05
2018-09-15T02:24:59.935Z,13.60
2018-09-15T02:27:33.394Z,14.33
2018-09-15T02:30:02.874Z,13.20
2018-09-15T02:32:35.026Z,15.43
2018-09-15T02:35:04.508Z,15.17
2018-09-15T02:37:35.780Z,15.32
2018-09-15T02:40:05.488Z,15.77
2018-09-15T02:42:35.003Z,15.03
2018-09-15T02:45:07.346Z,16.37
2018-09-15T02:47:37.586Z,15.90
2018-09-15T02:50:07.510Z,14.37
2018-09-15T02:52:38.766Z,15.20
2018-09-15T02:55:09.092Z,15.40
2018-09-15T02:57:39.396Z,14.03
2018-09-15T03:00:09.962Z,16.93
2018-09-15T03:02:40.363Z,15.57
2018-09-15T03:05:12.407Z,16.00
2018-09-15T03:07:46.103Z,16.03
2018-09-15T03:10:19.318Z,15.90
2018-09-15T03:12:48.901Z,15.70
2018-09-15T03:15:18.473Z,15.33
2018-09-15T03:17:48.114Z,13.80
2018-09-15T03:20:20.210Z,14.63
2018-09-15T03:22:49.796Z,14.60
2018-09-15T03:25:19.354Z,14.70
2018-09-15T03:27:49.855Z,15.97
2018-09-15T03:30:21.798Z,14.27
2018-09-15T03:32:53.891Z,14.93
2018-09-15T03:35:23.380Z,15.73
2018-09-15T03:37:54.466Z,14.40
2018-09-15T03:40:23.958Z,14.80
2018-09-15T03:42:54.254Z,15.00
2018-09-15T03:45:25.398Z,15.27
2018-09-15T03:47:54.956Z,14.73
2018-09-15T03:50:28.840Z,14.73
2018-09-15T03:52:59.141Z,14.38
2018-09-15T03:55:33.071Z,14.60
2018-09-15T03:58:02.557Z,13.68
2018-09-15T04:00:32.829Z,14.47
2018-09-15T04:03:02.445Z,14.80
2018-09-15T04:05:31.967Z,14.67
2018-09-15T04:08:01.458Z,15.57
2018-09-15T04:10:33.600Z,15.07
2018-09-15T04:13:03.886Z,14.40
2018-09-15T04:15:33.441Z,15.17
2018-09-15T04:18:02.933Z,15.20
2018-09-15T04:20:32.486Z,13.83
2018-09-15T04:23:01.967Z,13.98
2018-09-15T04:25:33.273Z,13.83
2018-09-15T04:28:04.340Z,15.17
2018-09-15T04:30:33.890Z,13.63
2018-09-15T04:33:06.273Z,14.25
2018-09-15T04:35:37.326Z,14.50
2018-09-15T04:38:08.940Z,14.67
2018-09-15T04:40:38.445Z,14.67
2018-09-15T04:43:10.330Z,13.80
2018-09-15T04:45:40.589Z,13.67
2018-09-15T04:48:11.864Z,15.00
2018-09-15T04:50:41.887Z,14.57
2018-09-15T04:53:11.378Z,14.80
2018-09-15T04:55:40.892Z,13.73
2018-09-15T04:58:12.376Z,14.20
2018-09-15T05:00:44.438Z,14.67
2018-09-15T05:03:14.083Z,13.73
2018-09-15T05:05:43.580Z,13.70
2018-09-15T05:08:14.653Z,13.67
2018-09-15T05:10:44.954Z,13.93
2018-09-15T05:13:14.521Z,13.10
2018-09-15T05:15:45.888Z,14.10
2018-09-15T05:18:16.221Z,14.10
2018-09-15T05:20:47.393Z,14.30
2018-09-15T05:23:17.012Z,13.80
2018-09-15T05:25:48.959Z,14.37
2018-09-15T05:28:18.632Z,14.80
2018-09-15T05:30:50.239Z,14.25
2018-09-15T05:33:22.595Z,13.17
2018-09-15T05:35:52.081Z,15.10
2018-09-15T05:38:22.521Z,13.97
2018-09-15T05:40:53.867Z,15.10
2018-09-15T05:43:23.479Z,13.88
2018-09-15T05:45:56.576Z,14.03
2018-09-15T05:48:26.099Z,14.20
2018-09-15T05:50:57.431Z,14.18
2018-09-15T05:53:26.975Z,14.60
2018-09-15T05:56:00.990Z,14.73
2018-09-15T05:58:33.077Z,14.63
2018-09-15T06:01:04.415Z,13.83
2018-09-15T06:03:38.175Z,13.78
2018-09-15T06:06:09.532Z,14.73
2018-09-15T06:08:39.015Z,15.37
2018-09-15T06:11:08.515Z,15.00
2018-09-15T06:13:38.073Z,15.17
2018-09-15T06:16:07.568Z,15.07
2018-09-15T06:18:37.073Z,16.33
2018-09-15T06:21:08.057Z,17.25
2018-09-15T06:23:39.385Z,17.27
2018-09-15T06:26:11.941Z,17.10
2018-09-15T06:28:41.547Z,17.40
2018-09-15T06:31:11.044Z,19.27
2018-09-15T06:33:43.247Z,17.27
2018-09-15T06:36:16.334Z,17.77
2018-09-15T06:38:46.676Z,17.50
2018-09-15T06:41:18.821Z,16.80
2018-09-15T06:43:49.131Z,18.57
2018-09-15T06:46:21.092Z,18.60
2018-09-15T06:48:50.623Z,19.00
2018-09-15T06:51:21.993Z,18.60
2018-09-15T06:53:52.273Z,19.50
2018-09-15T06:56:24.414Z,20.10
2018-09-15T06:58:58.791Z,18.87
2018-09-15T07:01:29.106Z,18.57
2018-09-15T07:04:00.438Z,19.67
2018-09-15T07:06:29.984Z,19.80
2018-09-15T07:09:00.688Z,20.67
2018-09-15T07:11:30.651Z,20.77
2018-09-15T07:14:01.407Z,20.02
2018-09-15T07:16:33.859Z,19.90
2018-09-15T07:19:04.677Z,22.13
2018-09-15T07:21:36.017Z,20.80
2018-09-15T07:24:07.453Z,20.77
2018-09-15T07:26:37.321Z,20.70
2018-09-15T07:29:08.099Z,22.52
2018-09-15T07:31:39.481Z,22.47
2018-09-15T07:34:10.128Z,22.10
2018-09-15T07:36:40.140Z,23.10
2018-09-15T07:39:13.119Z,22.60
2018-09-15T07:41:43.086Z,22.13
2018-09-15T07:44:24.506Z,22.10
2018-09-15T07:46:58.066Z,22.55
2018-09-15T07:49:28.085Z,22.47
2018-09-15T07:52:02.897Z,23.10
2018-09-15T07:54:34.830Z,21.57
2018-09-15T07:57:04.644Z,21.60
2018-09-15T07:59:36.229Z,21.30
2018-09-15T08:02:11.075Z,22.58
2018-09-15T08:07:13.552Z,22.60
2018-09-15T08:09:46.044Z,22.07
2018-09-15T08:12:17.671Z,22.25
2018-09-15T08:14:48.680Z,22.40
2018-09-15T08:17:19.790Z,20.47
2018-09-15T08:19:53.369Z,22.32
2018-09-15T08:22:24.006Z,21.70
2018-09-15T08:24:54.583Z,22.73
2018-09-15T08:27:25.777Z,22.17
2018-09-15T08:29:57.895Z,22.40
2018-09-15T08:32:28.501Z,22.13
2018-09-15T08:34:59.995Z,21.75
2018-09-15T08:37:33.552Z,22.20
2018-09-15T08:40:08.273Z,20.27
2018-09-15T08:42:39.308Z,19.87
2018-09-15T08:45:10.068Z,20.83
2018-09-15T08:47:41.497Z,21.50
2018-09-15T08:50:11.897Z,20.50
2018-09-15T08:52:44.764Z,21.43
2018-09-15T08:55:17.362Z,21.27
2018-09-15T08:57:50.533Z,22.13
2018-09-15T09:00:22.780Z,22.35
2018-09-15T09:02:54.158Z,20.00
2018-09-15T09:05:23.705Z,21.37
2018-09-15T09:07:54.079Z,23.77
2018-09-15T09:10:23.614Z,23.47
2018-09-15T09:12:55.640Z,23.87
2018-09-15T09:15:25.178Z,22.20
2018-09-15T09:17:56.466Z,21.90
2018-09-15T09:20:27.312Z,19.95
2018-09-15T09:22:59.427Z,20.56
2018-09-15T09:25:31.532Z,18.98
2018-09-15T09:28:03.591Z,19.93
2018-09-15T09:30:36.252Z,19.77
2018-09-15T09:33:07.576Z,19.20
2018-09-15T09:35:37.587Z,19.92
2018-09-15T09:38:08.965Z,17.52
2018-09-15T09:40:38.554Z,18.60
2018-09-15T09:43:08.221Z,17.80
2018-09-15T09:45:39.433Z,18.25
2018-09-15T09:48:09.791Z,18.90
2018-09-15T09:50:40.196Z,18.57
2018-09-15T09:53:13.341Z,16.30
2018-09-15T09:55:44.060Z,18.03
2018-09-15T09:58:15.434Z,17.40
2018-09-15T10:00:50.673Z,16.00
2018-09-15T10:03:23.716Z,16.10
2018-09-15T10:05:53.971Z,13.63
2018-09-15T10:08:27.157Z,19.27
2018-09-15T10:10:58.595Z,17.70
2018-09-15T10:13:29.195Z,17.80
2018-09-15T10:16:00.698Z,20.82
2018-09-15T10:18:31.049Z,18.17
2018-09-15T10:21:00.984Z,16.40
2018-09-15T10:23:32.309Z,15.48
2018-09-15T10:33:21.758Z,14.47
2018-09-15T10:36:14.459Z,13.18
2018-09-15T10:38:44.995Z,11.37
2018-09-15T10:41:14.216Z,9.90
2018-09-15T10:43:43.345Z,13.50
2018-09-15T10:46:12.491Z,15.63
2018-09-15T10:48:41.626Z,15.90
2018-09-15T10:51:10.675Z,17.33
2018-09-15T10:53:40.001Z,16.30
2018-09-15T10:56:09.012Z,15.18
2018-09-15T10:58:38.158Z,15.85
2018-09-15T11:01:07.244Z,16.60
2018-09-15T11:03:36.370Z,14.87
2018-09-15T11:06:05.454Z,14.38
2018-09-15T11:08:34.565Z,13.15
2018-09-15T11:11:03.671Z,12.00
2018-09-15T11:13:32.800Z,12.90
2018-09-15T11:16:01.820Z,12.03
2018-09-15T11:18:30.890Z,11.00
2018-09-15T11:20:59.975Z,11.67
2018-09-15T11:23:29.061Z,9.60
2018-09-15T11:25:58.142Z,10.45
2018-09-15T11:28:27.259Z,10.47
2018-09-15T11:30:56.406Z,9.47
2018-09-15T11:33:25.581Z,9.43
2018-09-15T11:35:54.626Z,9.13
2018-09-15T11:38:25.101Z,7.70
2018-09-15T11:40:55.313Z,7.27
2018-09-15T11:43:25.430Z,6.70
2018-09-15T11:45:55.475Z,8.30
2018-09-15T11:48:24.956Z,6.43
2018-09-15T11:50:54.989Z,6.97
2018-09-15T11:53:24.070Z,6.50
2018-09-15T11:55:53.147Z,6.37
2018-09-15T11:58:22.283Z,6.20
2018-09-15T12:00:55.352Z,7.97
2018-09-15T12:03:24.435Z,5.67
2018-09-15T12:05:53.468Z,6.33
2018-09-15T12:08:22.525Z,6.60
2018-09-15T12:10:52.313Z,7.47
2018-09-15T12:13:22.273Z,5.57
2018-09-15T12:15:52.362Z,5.95
2018-09-15T12:18:22.326Z,5.70
2018-09-15T12:20:52.235Z,6.53
2018-09-15T12:23:22.281Z,5.85
2018-09-15T12:41:25.434Z,7.60
2018-09-15T12:44:06.242Z,8.70
2018-09-15T12:46:37.862Z,7.30
2018-09-15T12:49:12.770Z,7.67
2018-09-15T13:47:29.346Z,5.67
2018-09-15T13:49:58.510Z,5.80
2018-09-15T13:52:27.665Z,5.70
2018-09-15T13:54:56.802Z,5.87
2018-09-15T13:57:25.954Z,5.20
2018-09-15T13:59:55.150Z,5.30
2018-09-15T14:02:26.649Z,4.90
2018-09-15T14:04:55.988Z,5.00
2018-09-15T14:07:25.178Z,6.13
2018-09-15T14:10:10.398Z,4.90
2018-09-15T14:12:40.645Z,4.80
2018-09-15T14:15:09.870Z,5.27
2018-09-15T14:17:39.192Z,5.40
2018-09-15T14:20:08.411Z,5.72
2018-09-15T14:22:40.960Z,5.78
2018-09-15T14:25:10.113Z,4.83
2018-09-15T14:27:42.115Z,5.00
2018-09-15T14:30:11.554Z,4.50
2018-09-15T14:32:42.824Z,4.90
2018-09-15T14:35:12.831Z,5.15
2018-09-15T14:37:46.558Z,4.78
2018-09-15T14:40:16.455Z,4.20
2018-09-15T14:42:46.157Z,4.23
2018-09-15T14:45:16.993Z,4.60
2018-09-15T14:47:46.484Z,3.70
2018-09-15T14:50:15.687Z,5.03
2018-09-15T14:52:44.870Z,4.60
2018-09-15T14:55:14.157Z,4.37
2018-09-15T14:57:46.341Z,4.20
2018-09-15T15:00:15.621Z,4.43
2018-09-15T15:02:49.832Z,4.53
2018-09-15T15:05:19.048Z,4.17
2018-09-15T15:07:49.030Z,3.80
2018-09-15T15:10:18.147Z,4.00
2018-09-15T15:12:47.539Z,4.57
2018-09-15T15:15:18.394Z,3.93
2018-09-15T15:17:47.518Z,3.80
2018-09-15T15:20:16.766Z,3.83
2018-09-15T15:22:46.271Z,3.90
2018-09-15T15:25:15.479Z,3.63
2018-09-15T15:27:45.201Z,4.20
2018-09-15T15:30:14.398Z,4.47
2018-09-15T15:32:44.047Z,4.62
2018-09-15T15:35:13.150Z,4.37
2018-09-15T15:37:42.765Z,4.00
2018-09-15T15:40:12.003Z,4.08
2018-09-15T15:42:42.373Z,3.70
2018-09-15T15:45:11.599Z,5.00
2018-09-15T15:47:41.186Z,4.83
2018-09-15T15:50:13.076Z,4.00
2018-09-15T15:52:44.436Z,3.90
2018-09-15T15:55:13.655Z,3.90
2018-09-15T15:57:44.981Z,4.10
2018-09-15T16:00:14.184Z,4.30
2018-09-15T16:02:43.782Z,4.17
2018-09-15T16:05:13.176Z,4.42
2018-09-15T16:07:42.784Z,4.37
2018-09-15T16:10:11.936Z,4.40
2018-09-15T16:12:41.175Z,4.67
2018-09-15T16:15:11.191Z,4.40
2018-09-15T16:17:42.475Z,4.20
2018-09-15T16:20:13.464Z,4.25
2018-09-15T16:22:43.149Z,4.27
2018-09-15T16:25:13.039Z,4.00
2018-09-15T16:27:42.604Z,3.97
2018-09-15T16:30:11.783Z,3.60
2018-09-15T16:32:41.299Z,3.30
2018-09-15T16:35:10.492Z,4.40
2018-09-15T16:37:40.093Z,3.70
2018-09-15T16:40:09.253Z,4.47
2018-09-15T16:42:39.033Z,4.37
2018-09-15T16:45:08.258Z,4.05
2018-09-15T16:47:37.845Z,4.13
2018-09-15T16:50:07.001Z,3.93
2018-09-15T16:52:36.512Z,5.05
2018-09-15T16:55:05.789Z,4.15
2018-09-15T16:57:36.044Z,4.28
2018-09-15T17:00:05.555Z,4.77
2018-09-15T17:02:35.129Z,4.20
2018-09-15T17:05:04.283Z,4.75
2018-09-15T17:07:33.491Z,4.50
2018-09-15T17:10:03.029Z,5.17
2018-09-15T17:12:32.232Z,7.82
2018-09-15T17:15:03.508Z,6.93
2018-09-15T17:17:32.667Z,6.77
2018-09-15T17:20:01.870Z,5.47
2018-09-15T17:22:31.097Z,5.50
2018-09-15T17:25:00.223Z,5.50
2018-09-15T17:27:30.931Z,4.73
2018-09-15T17:30:00.105Z,4.63
2018-09-15T17:32:29.255Z,4.73
2018-09-15T17:35:01.035Z,4.67
2018-09-15T17:37:31.941Z,4.63
2018-09-15T17:40:02.761Z,4.50
2018-09-15T17:42:32.016Z,5.47
2018-09-15T17:45:01.275Z,5.87
2018-09-15T17:47:30.539Z,5.80
2018-09-15T17:49:59.747Z,5.67
2018-09-15T17:52:28.911Z,7.93
2018-09-15T17:54:58.117Z,6.97
2018-09-15T17:57:27.384Z,7.80
2018-09-15T17:59:57.086Z,8.60
2018-09-15T18:02:27.135Z,7.75
2018-09-15T18:04:57.991Z,6.10
2018-09-15T18:07:27.339Z,5.70
2018-09-15T18:09:57.425Z,5.60
2018-09-15T18:12:27.188Z,4.80
2018-09-15T18:14:57.205Z,5.40
2018-09-15T18:17:27.244Z,5.45
2018-09-15T18:25:08.872Z,5.60
2018-09-15T18:27:39.229Z,6.33
2018-09-15T18:30:08.630Z,6.40
2018-09-15T18:32:38.302Z,6.33
2018-09-15T18:35:07.566Z,6.03
2018-09-15T18:37:37.141Z,6.50
2018-09-15T18:40:06.588Z,6.40
2018-09-15T18:42:36.965Z,7.03
2018-09-15T18:45:08.121Z,6.80
2018-09-15T18:47:40.304Z,6.30
2018-09-15T18:50:09.674Z,6.00
2018-09-15T18:52:39.198Z,6.70
2018-09-15T18:55:08.535Z,5.63
2018-09-15T18:57:38.165Z,6.17
2018-09-15T19:00:07.518Z,5.93
2018-09-15T19:02:38.849Z,6.40
2018-09-15T19:05:08.184Z,9.00
2018-09-15T19:07:37.892Z,10.43
2018-09-15T19:10:08.781Z,13.87
2018-09-15T19:12:40.100Z,21.37
2018-09-15T19:15:09.402Z,21.37
2018-09-15T19:17:39.006Z,10.58
2018-09-15T19:20:08.457Z,18.17
2018-09-15T19:22:38.257Z,10.83
2018-09-15T19:25:07.840Z,8.63
2018-09-15T19:40:37.255Z,9.90
2018-09-15T19:43:06.812Z,20.80
2018-09-15T19:45:36.655Z,25.10
2018-09-15T19:48:07.908Z,19.90
2018-09-15T19:50:39.407Z,15.23
2018-09-15T19:53:08.893Z,17.43
2018-09-15T19:55:40.506Z,15.18
2018-09-15T19:58:11.658Z,12.87
2018-09-15T20:00:42.175Z,11.40
2018-09-15T20:03:12.490Z,11.93
2018-09-15T20:05:42.453Z,9.30
2018-09-15T20:08:13.713Z,15.80
2018-09-15T20:10:43.621Z,14.33
2018-09-15T20:13:13.232Z,9.37
2018-09-15T20:15:41.314Z,22.23
2018-09-15T20:18:09.403Z,12.53
2018-09-15T20:20:37.760Z,8.00
2018-09-15T20:23:07.715Z,8.80
2018-09-15T20:25:37.441Z,11.65
2018-09-15T20:28:06.946Z,11.60
2018-09-15T20:30:39.199Z,12.10
2018-09-15T20:33:08.680Z,10.93
2018-09-15T20:35:39.461Z,10.98
2018-09-15T20:38:08.828Z,10.98
2018-09-15T20:40:38.462Z,12.70
2018-09-15T20:43:07.766Z,9.05
2018-09-15T20:45:37.312Z,9.10
2018-09-15T20:48:06.802Z,7.45
2018-09-15T20:50:36.429Z,9.83
2018-09-15T20:53:05.792Z,9.90
2018-09-15T20:55:37.334Z,9.05
2018-09-15T20:58:06.803Z,9.73
2018-09-15T21:00:36.393Z,9.10
2018-09-15T21:03:05.686Z,9.58
2018-09-15T21:05:35.298Z,10.05
2018-09-15T21:08:04.546Z,9.82
2018-09-15T21:10:35.924Z,9.85
2018-09-15T21:13:05.147Z,9.73
2018-09-15T21:15:34.448Z,10.45
2018-09-15T21:18:04.139Z,10.98
2018-09-15T21:20:33.335Z,8.60
2018-09-15T21:23:02.504Z,8.90
2018-09-15T21:25:31.737Z,7.77
